Time;durP1;ratioP1;P1;durP2;ratioP2;P2;SDS_P1;SDS_P2;PMS_P1;PMS_P2;Temp;Humidity;BMP_temperature;BMP_pressure;BME280_temperature;BME280_humidity;BME280_pressure;Samples;Min_cycle;Max_cycle;Signal;HPM_P1;HPM_P2
2021/05/19 00:01:31;;;;;;;5.68;5.07;;;;;;;3.43;51.91;95342.94;5066909;28;20112;-68
2021/05/19 00:03:57;;;;;;;6.22;4.45;;;;;;;3.32;51.62;95343.06;5062843;28;20235;-68
2021/05/19 00:06:22;;;;;;;3.65;3.33;;;;;;;3.42;50.94;95344.75;5062128;28;20111;-68
2021/05/19 00:08:48;;;;;;;3.42;3.13;;;;;;;3.52;50.90;95338.66;5058392;28;20085;-68
2021/05/19 00:11:13;;;;;;;3.78;3.38;;;;;;;3.52;50.50;95338.66;5062085;28;20106;-68
2021/05/19 00:13:38;;;;;;;3.75;3.30;;;;;;;3.55;49.99;95341.03;5062449;28;20080;-68
2021/05/19 00:16:06;;;;;;;4.15;3.53;;;;;;;3.54;50.11;95336.75;5062341;28;20287;-68
2021/05/19 00:18:31;;;;;;;4.25;3.50;;;;;;;3.57;50.14;95340.88;5061372;28;20634;-68
2021/05/19 00:20:57;;;;;;;4.97;3.95;;;;;;;3.61;50.66;95335.19;5066074;28;20072;-68
2021/05/19 00:23:22;;;;;;;5.60;4.90;;;;;;;3.65;51.20;95338.38;5067966;28;20117;-68
2021/05/19 00:25:47;;;;;;;4.40;3.70;;;;;;;3.76;51.09;95340.00;5066301;28;20863;-68
2021/05/19 00:28:13;;;;;;;4.85;3.53;;;;;;;3.86;50.33;95340.81;5067993;28;20081;-68
2021/05/19 00:30:39;;;;;;;5.00;4.00;;;;;;;3.85;49.61;95336.53;5066124;28;20116;-68
2021/05/19 00:33:05;;;;;;;5.47;3.88;;;;;;;3.85;49.74;95338.34;5068176;28;20077;-68
2021/05/19 00:35:31;;;;;;;3.00;2.70;;;;;;;3.88;48.94;95343.31;5064271;28;20521;-68
2021/05/19 00:37:56;;;;;;;5.22;3.78;;;;;;;3.77;48.78;95349.56;5069808;28;20085;-68
2021/05/19 00:40:21;;;;;;;4.22;3.08;;;;;;;3.74;48.69;95352.50;5066730;28;20165;-68
2021/05/19 00:42:47;;;;;;;5.18;4.18;;;;;;;3.61;49.24;95353.59;5066149;28;20147;-67
2021/05/19 00:45:13;;;;;;;6.70;5.03;;;;;;;3.48;50.03;95351.28;5065274;28;20097;-67
2021/05/19 00:47:41;;;;;;;5.55;4.20;;;;;;;3.48;50.20;95348.66;5031781;28;20144;-67
2021/05/19 00:50:19;;;;;;;4.18;3.78;;;;;;;3.49;50.23;95349.47;5064513;28;20112;-67
2021/05/19 00:52:44;;;;;;;4.28;3.40;;;;;;;3.65;49.29;95356.81;5066644;28;20080;-67
2021/05/19 00:55:10;;;;;;;5.75;3.70;;;;;;;3.70;49.88;95348.50;5066508;28;20097;-67
2021/05/19 00:57:35;;;;;;;3.97;2.97;;;;;;;3.78;49.92;95353.88;5067371;28;20081;-67
2021/05/19 01:00:01;;;;;;;6.40;4.80;;;;;;;3.83;51.14;95356.06;5065580;28;20109;-67
2021/05/19 01:02:26;;;;;;;6.03;4.13;;;;;;;4.14;50.72;95359.31;5064088;28;20558;-68
2021/05/19 01:04:52;;;;;;;7.40;5.50;;;;;;;4.35;53.78;95345.09;5056915;28;20517;-68
2021/05/19 01:07:26;;;;;;;7.18;5.22;;;;;;;4.42;54.01;95346.16;5064520;28;20093;-68
2021/05/19 01:09:52;;;;;;;8.45;6.35;;;;;;;4.69;54.98;95347.16;5063761;28;20080;-68
2021/05/19 01:12:19;;;;;;;9.18;6.20;;;;;;;4.38;57.23;95349.22;5066941;28;20073;-67
2021/05/19 01:14:44;;;;;;;7.03;5.43;;;;;;;4.21;57.96;95348.22;5048487;28;20089;-68
2021/05/19 01:17:10;;;;;;;6.13;4.50;;;;;;;3.74;60.69;95348.06;5030976;28;20112;-67
2021/05/19 01:19:40;;;;;;;9.63;6.28;;;;;;;3.96;60.17;95355.75;5071650;28;20107;-67
2021/05/19 01:22:13;;;;;;;8.63;6.50;;;;;;;4.26;59.63;95352.09;5066091;28;20107;-67
2021/05/19 01:24:40;;;;;;;10.60;6.90;;;;;;;4.42;59.85;95351.44;5065075;28;20137;-67
2021/05/19 01:27:06;;;;;;;9.95;7.28;;;;;;;4.70;58.98;95342.72;5051958;28;20093;-67
2021/05/19 01:29:31;;;;;;;11.15;6.68;;;;;;;5.03;57.24;95352.78;5068228;28;20851;-67
2021/05/19 01:31:57;;;;;;;8.00;6.75;;;;;;;5.20;57.47;95335.31;5067192;28;20575;-67
2021/05/19 01:34:22;;;;;;;9.15;6.15;;;;;;;5.15;57.23;95346.34;5058775;28;20108;-68
2021/05/19 01:36:48;;;;;;;13.50;7.63;;;;;;;5.13;57.47;95340.38;5063724;28;20627;-68
2021/05/19 01:39:13;;;;;;;7.93;6.43;;;;;;;5.53;56.63;95354.09;5065499;28;20131;-69
2021/05/19 01:41:39;;;;;;;11.20;7.03;;;;;;;5.41;57.11;95348.19;5063826;28;20208;-67
2021/05/19 01:44:15;;;;;;;7.85;6.25;;;;;;;5.18;58.15;95345.19;5061370;28;20553;-68
2021/05/19 01:46:41;;;;;;;8.95;7.03;;;;;;;5.64;56.65;95347.72;5063106;28;20546;-68
2021/05/19 01:49:07;;;;;;;13.32;8.15;;;;;;;5.71;56.21;95340.00;5068977;28;20103;-68
2021/05/19 01:51:34;;;;;;;9.05;6.13;;;;;;;5.67;56.30;95342.13;5058643;28;20104;-68
2021/05/19 01:54:00;;;;;;;9.40;5.63;;;;;;;5.28;56.74;95342.47;5045950;28;20083;-68
2021/05/19 01:56:25;;;;;;;9.40;7.20;;;;;;;5.41;57.11;95340.28;5046288;28;20073;-67
2021/05/19 01:58:50;;;;;;;10.10;7.40;;;;;;;5.66;55.96;95337.84;5064395;28;20100;-68
2021/05/19 02:01:16;;;;;;;9.70;7.53;;;;;;;5.49;56.78;95347.44;5063690;28;20355;-68
2021/05/19 02:03:41;;;;;;;10.13;7.28;;;;;;;5.61;56.88;95346.22;5065851;28;20104;-68
2021/05/19 02:06:07;;;;;;;11.20;7.93;;;;;;;5.65;56.87;95346.75;5068090;28;20541;-68
2021/05/19 02:08:32;;;;;;;12.02;7.90;;;;;;;5.34;57.59;95336.63;5064826;28;20072;-68
2021/05/19 02:10:57;;;;;;;9.43;7.55;;;;;;;5.53;55.91;95338.25;5063964;28;20101;-68
2021/05/19 02:13:23;;;;;;;10.90;7.90;;;;;;;5.55;57.25;95346.00;5055734;28;20140;-68
2021/05/19 02:15:48;;;;;;;14.32;9.57;;;;;;;5.03;58.16;95340.41;5062693;28;20097;-68
2021/05/19 02:18:14;;;;;;;12.43;9.32;;;;;;;4.89;58.26;95344.38;5059348;28;20093;-68
2021/05/19 02:20:39;;;;;;;14.10;10.10;;;;;;;5.06;58.25;95347.22;5063014;28;20694;-68
2021/05/19 02:23:05;;;;;;;14.55;10.32;;;;;;;4.87;59.22;95349.00;5063538;28;20100;-68
2021/05/19 02:25:30;;;;;;;12.07;8.30;;;;;;;4.86;59.53;95347.31;5063168;28;20080;-68
2021/05/19 02:27:56;;;;;;;9.98;7.20;;;;;;;5.44;57.20;95347.91;5064613;28;20160;-68
2021/05/19 02:30:21;;;;;;;10.77;8.40;;;;;;;5.82;55.43;95342.41;5062914;28;20242;-68
2021/05/19 02:32:47;;;;;;;8.82;6.70;;;;;;;6.12;55.76;95336.78;5064282;28;20526;-68
2021/05/19 02:35:13;;;;;;;6.55;5.15;;;;;;;6.49;54.41;95346.28;5051608;28;20101;-68
2021/05/19 02:37:40;;;;;;;6.25;4.97;;;;;;;6.72;54.26;95339.56;5070366;28;20441;-68
2021/05/19 02:40:06;;;;;;;7.65;6.15;;;;;;;6.91;53.78;95345.59;5067028;28;20605;-68
2021/05/19 02:42:31;;;;;;;7.60;5.55;;;;;;;7.13;53.10;95338.84;5072407;28;20113;-68
2021/05/19 02:44:57;;;;;;;6.50;5.22;;;;;;;7.25;52.67;95345.47;5066530;28;20091;-68
2021/05/19 02:47:22;;;;;;;10.82;6.90;;;;;;;7.33;52.49;95349.97;5067256;28;20343;-68
2021/05/19 02:49:47;;;;;;;8.68;7.00;;;;;;;7.09;51.80;95350.75;5075190;28;21380;-68
2021/05/19 02:52:13;;;;;;;5.93;5.05;;;;;;;7.02;52.71;95350.56;5067471;28;20123;-68
2021/05/19 02:54:38;;;;;;;10.00;6.22;;;;;;;7.39;51.82;95340.53;5068710;28;20115;-68
2021/05/19 02:57:04;;;;;;;9.90;7.00;;;;;;;7.58;51.22;95341.22;5071739;28;20103;-68
2021/05/19 02:59:30;;;;;;;12.65;9.68;;;;;;;7.32;52.14;95343.03;5068112;28;20687;-68
2021/05/19 03:01:55;;;;;;;13.05;10.95;;;;;;;7.04;52.41;95342.47;5068553;28;20077;-68
2021/05/19 03:04:21;;;;;;;16.17;11.13;;;;;;;7.07;52.67;95344.81;5048740;28;20154;-68
2021/05/19 03:06:46;;;;;;;11.38;8.20;;;;;;;7.22;51.88;95343.19;5065320;28;20116;-68
2021/05/19 03:09:11;;;;;;;13.95;9.35;;;;;;;7.26;51.60;95341.84;5067298;28;20077;-68
2021/05/19 03:11:37;;;;;;;17.52;12.82;;;;;;;7.11;52.50;95344.28;5066007;28;20627;-68
2021/05/19 03:14:04;;;;;;;19.38;13.52;;;;;;;6.82;54.29;95353.50;5064604;28;20419;-68
2021/05/19 03:16:31;;;;;;;17.48;14.00;;;;;;;6.90;53.42;95344.75;5068975;28;20108;-68
2021/05/19 03:18:56;;;;;;;24.85;15.93;;;;;;;6.18;55.80;95346.75;5066031;28;20108;-68
2021/05/19 03:21:22;;;;;;;19.38;14.25;;;;;;;6.46;54.95;95351.03;5066168;28;20085;-68
2021/05/19 03:23:47;;;;;;;22.30;16.33;;;;;;;6.68;54.40;95356.75;5065301;28;20162;-68
2021/05/19 03:26:12;;;;;;;23.50;16.60;;;;;;;6.40;55.90;95347.22;5063053;28;20541;-68
2021/05/19 03:28:38;;;;;;;21.58;15.30;;;;;;;6.59;55.44;95354.09;5060062;28;20079;-68
2021/05/19 03:31:04;;;;;;;22.23;15.32;;;;;;;6.16;56.60;95354.03;5063533;28;20155;-68
2021/05/19 03:33:30;;;;;;;18.92;13.20;;;;;;;6.72;54.74;95351.00;5066031;28;20072;-68
2021/05/19 03:35:55;;;;;;;21.20;12.52;;;;;;;7.01;53.86;95357.69;5068588;28;20656;-68
2021/05/19 03:38:21;;;;;;;17.67;13.18;;;;;;;7.09;53.41;95350.75;5068332;28;20101;-68
2021/05/19 03:40:46;;;;;;;18.05;11.60;;;;;;;7.24;53.57;95357.06;5064685;28;20121;-68
2021/05/19 03:43:11;;;;;;;20.38;13.98;;;;;;;7.00;54.20;95358.69;5067005;28;20137;-68
2021/05/19 03:45:37;;;;;;;19.88;13.57;;;;;;;7.25;52.99;95361.38;5058857;28;20089;-68
2021/05/19 03:48:03;;;;;;;14.25;9.13;;;;;;;7.37;53.61;95366.34;5066484;28;20105;-68
2021/05/19 03:50:31;;;;;;;20.10;13.82;;;;;;;7.38;53.38;95363.53;5066839;28;20856;-68
2021/05/19 03:53:00;;;;;;;14.68;9.90;;;;;;;7.48;53.29;95366.03;5067594;28;20449;-68
2021/05/19 03:55:26;;;;;;;17.00;12.70;;;;;;;7.68;52.84;95368.34;5065500;28;20104;-68
2021/05/19 03:57:51;;;;;;;14.50;10.02;;;;;;;8.01;51.71;95364.88;5066892;28;20085;-68
2021/05/19 04:00:19;;;;;;;19.35;13.07;;;;;;;8.18;51.00;95371.81;5060641;28;20528;-68
2021/05/19 04:02:49;;;;;;;19.88;11.73;;;;;;;8.14;50.91;95370.50;5057408;28;20216;-68
2021/05/19 04:05:16;;;;;;;18.02;13.23;;;;;;;8.20;50.82;95368.16;5068027;28;20134;-68
2021/05/19 04:07:41;;;;;;;19.00;13.65;;;;;;;8.03;51.38;95371.66;5048937;28;20089;-68
2021/05/19 04:10:07;;;;;;;20.80;15.77;;;;;;;7.99;51.00;95364.25;5068022;28;20091;-68
2021/05/19 04:12:32;;;;;;;23.90;18.15;;;;;;;7.62;51.98;95367.19;5064193;28;20608;-68
2021/05/19 04:14:58;;;;;;;18.77;14.30;;;;;;;7.95;51.20;95365.56;5066395;28;20562;-68
2021/05/19 04:17:23;;;;;;;17.38;13.05;;;;;;;7.89;51.49;95373.19;5066965;28;20131;-68
2021/05/19 04:19:48;;;;;;;15.73;12.38;;;;;;;8.05;50.84;95369.69;5066912;28;20120;-68
2021/05/19 04:22:14;;;;;;;15.57;12.48;;;;;;;7.94;50.63;95372.69;5067635;28;20104;-68
2021/05/19 04:24:39;;;;;;;15.30;11.50;;;;;;;7.85;50.84;95368.41;5067840;28;20085;-68
2021/05/19 04:27:05;;;;;;;16.25;12.77;;;;;;;7.57;51.63;95360.72;5049537;28;20101;-68
2021/05/19 04:29:30;;;;;;;18.10;13.63;;;;;;;7.40;52.28;95374.81;5060532;28;20098;-68
2021/05/19 04:31:56;;;;;;;17.02;13.00;;;;;;;7.58;52.12;95367.69;5067631;28;20105;-68
2021/05/19 04:34:21;;;;;;;13.27;9.50;;;;;;;7.71;51.75;95367.19;5062072;28;20108;-68
2021/05/19 04:36:47;;;;;;;9.95;7.68;;;;;;;7.86;51.06;95368.19;5067165;28;20557;-68
2021/05/19 04:39:12;;;;;;;12.65;9.73;;;;;;;7.96;51.00;95378.63;5066063;28;20633;-68
2021/05/19 04:41:38;;;;;;;14.95;12.30;;;;;;;7.98;50.80;95379.31;5066684;28;20458;-68
2021/05/19 04:44:03;;;;;;;12.95;10.63;;;;;;;7.71;51.49;95375.97;5064975;28;20119;-68
2021/05/19 04:46:28;;;;;;;15.30;11.73;;;;;;;7.51;51.70;95380.75;5063120;28;20110;-68
2021/05/19 04:48:58;;;;;;;13.95;9.63;;;;;;;7.71;51.37;95383.94;5066528;28;20283;-68
2021/05/19 04:51:25;;;;;;;13.90;9.45;;;;;;;7.68;51.78;95383.44;5064324;28;20102;-68
2021/05/19 04:53:50;;;;;;;13.27;10.70;;;;;;;7.50;51.59;95385.25;5066256;28;20129;-68
2021/05/19 04:56:16;;;;;;;13.57;10.52;;;;;;;7.66;51.34;95391.56;5064728;28;20098;-68
2021/05/19 04:58:41;;;;;;;15.10;10.73;;;;;;;7.24;51.77;95398.63;5065982;28;20105;-68
2021/05/19 05:01:06;;;;;;;13.48;9.68;;;;;;;7.56;51.78;95404.13;5064686;28;20092;-67
2021/05/19 05:03:32;;;;;;;15.57;11.60;;;;;;;7.04;53.14;95404.16;5058191;28;20104;-68
2021/05/19 05:05:58;;;;;;;10.25;8.63;;;;;;;7.30;52.96;95410.34;5066199;28;20091;-68
2021/05/19 05:08:23;;;;;;;12.25;9.57;;;;;;;7.04;53.19;95398.06;5065672;28;20077;-68
2021/05/19 05:10:49;;;;;;;11.15;9.32;;;;;;;7.36;52.44;95407.91;5066837;28;20117;-68
2021/05/19 05:13:14;;;;;;;12.13;9.98;;;;;;;7.10;52.63;95408.00;5067249;28;20076;-68
2021/05/19 05:15:40;;;;;;;13.27;11.07;;;;;;;6.05;56.44;95400.03;5065889;28;20109;-68
2021/05/19 05:18:05;;;;;;;13.02;9.70;;;;;;;6.97;53.31;95405.81;5066673;28;20461;-68
2021/05/19 05:20:31;;;;;;;13.60;9.38;;;;;;;7.17;53.30;95403.72;5065087;28;20523;-68
2021/05/19 05:22:56;;;;;;;10.90;8.93;;;;;;;7.21;52.86;95415.63;5062979;28;20117;-68
2021/05/19 05:25:22;;;;;;;13.00;10.30;;;;;;;6.55;54.63;95415.38;5063811;28;20069;-68
2021/05/19 05:27:48;;;;;;;12.77;10.23;;;;;;;7.01;53.43;95418.56;5065429;28;20199;-68
2021/05/19 05:30:15;;;;;;;11.50;7.70;;;;;;;7.25;52.72;95416.16;5062442;28;20526;-68
2021/05/19 05:32:41;;;;;;;14.68;9.63;;;;;;;6.30;54.92;95417.88;5062695;28;20435;-68
2021/05/19 05:35:07;;;;;;;10.52;7.93;;;;;;;7.05;53.11;95418.25;5064671;28;20097;-68
2021/05/19 05:37:32;;;;;;;13.27;8.38;;;;;;;6.97;53.12;95419.88;5069372;28;20080;-68
2021/05/19 05:39:57;;;;;;;9.48;8.43;;;;;;;6.45;55.01;95421.59;5062254;28;20501;-68
2021/05/19 05:42:25;;;;;;;8.63;6.32;;;;;;;7.33;52.28;95415.34;5066287;28;20101;-67
2021/05/19 05:44:51;;;;;;;10.07;6.47;;;;;;;7.57;51.99;95425.16;5061616;28;20085;-67
2021/05/19 05:47:16;;;;;;;9.38;6.63;;;;;;;7.26;52.41;95423.09;5055575;28;20112;-67
2021/05/19 05:49:41;;;;;;;10.20;8.20;;;;;;;7.65;51.76;95424.34;5061509;28;20081;-67
2021/05/19 05:52:07;;;;;;;11.52;8.05;;;;;;;6.87;53.32;95432.44;5061612;28;20109;-68
2021/05/19 05:54:32;;;;;;;11.45;8.05;;;;;;;7.34;52.12;95430.25;5062050;28;20167;-68
2021/05/19 05:56:58;;;;;;;10.82;7.88;;;;;;;7.00;53.28;95435.44;5065309;28;20089;-68
2021/05/19 05:59:24;;;;;;;10.02;7.97;;;;;;;7.39;52.44;95438.53;5064241;28;20116;-67
2021/05/19 06:01:49;;;;;;;9.07;7.25;;;;;;;7.32;52.15;95437.53;5064785;28;20088;-68
2021/05/19 06:04:14;;;;;;;7.78;6.18;;;;;;;8.14;50.78;95426.19;5065379;28;20109;-68
2021/05/19 06:06:41;;;;;;;8.80;6.53;;;;;;;8.40;49.86;95429.66;5061004;28;20135;-68
2021/05/19 06:09:06;;;;;;;6.30;5.40;;;;;;;8.66;49.22;95432.06;5048810;28;20445;-68
2021/05/19 06:11:32;;;;;;;6.70;5.60;;;;;;;8.52;49.88;95433.59;5061147;28;20116;-68
2021/05/19 06:13:58;;;;;;;7.63;5.55;;;;;;;8.38;49.13;95443.06;5068650;28;20077;-68
2021/05/19 06:16:23;;;;;;;5.72;4.90;;;;;;;8.63;49.68;95431.56;5067764;28;20115;-68
2021/05/19 06:18:49;;;;;;;6.78;5.30;;;;;;;8.67;49.02;95446.16;5069232;28;20138;-68
2021/05/19 06:21:14;;;;;;;8.18;4.78;;;;;;;8.11;50.19;95446.91;5069659;28;20145;-68
2021/05/19 06:23:40;;;;;;;7.50;5.10;;;;;;;8.67;49.17;95446.16;5064005;28;20473;-67
2021/05/19 06:26:06;;;;;;;6.00;5.13;;;;;;;7.84;50.72;95444.41;5069101;28;20191;-67
2021/05/19 06:28:31;;;;;;;7.43;5.53;;;;;;;7.59;50.48;95451.50;5064953;28;20551;-67
2021/05/19 06:30:57;;;;;;;6.57;5.35;;;;;;;8.29;50.21;95452.03;5069606;28;20242;-67
2021/05/19 06:33:22;;;;;;;5.97;4.47;;;;;;;8.41;49.77;95447.22;5068242;28;20107;-67
2021/05/19 06:35:48;;;;;;;8.32;5.32;;;;;;;9.02;48.84;95448.56;5069677;28;20195;-67
2021/05/19 06:38:13;;;;;;;6.75;5.25;;;;;;;9.39;46.94;95449.69;5070362;28;20108;-67
2021/05/19 06:40:39;;;;;;;6.45;4.53;;;;;;;9.29;46.36;95449.09;5068545;28;20123;-67
2021/05/19 06:43:04;;;;;;;10.85;7.82;;;;;;;8.09;49.91;95447.06;5069995;28;20438;-68
2021/05/19 06:45:30;;;;;;;8.48;4.50;;;;;;;7.93;50.66;95445.25;5064606;28;20220;-68
2021/05/19 06:47:55;;;;;;;6.43;4.00;;;;;;;8.28;49.76;95453.03;5067971;28;20568;-68
2021/05/19 06:50:21;;;;;;;5.65;4.50;;;;;;;7.66;51.35;95455.94;5067687;28;20105;-68
2021/05/19 06:52:46;;;;;;;6.97;4.03;;;;;;;7.11;51.03;95463.44;5069728;28;20103;-68
2021/05/19 06:55:13;;;;;;;6.22;4.32;;;;;;;7.23;51.05;95458.69;5065083;28;20128;-68
2021/05/19 06:57:39;;;;;;;5.82;4.18;;;;;;;6.83;52.77;95468.94;5068111;28;20080;-68
2021/05/19 07:00:05;;;;;;;6.93;4.55;;;;;;;7.08;52.52;95465.59;5067820;28;20468;-68
2021/05/19 07:02:31;;;;;;;11.43;7.95;;;;;;;6.83;53.59;95476.06;5067478;28;20113;-68
2021/05/19 07:04:56;;;;;;;5.82;3.92;;;;;;;6.82;53.77;95477.88;5069120;28;20430;-68
2021/05/19 07:07:22;;;;;;;7.38;5.60;;;;;;;7.31;51.26;95470.31;5067764;28;20581;-68
2021/05/19 07:09:47;;;;;;;9.18;6.63;;;;;;;7.63;51.68;95464.25;5066590;28;20343;-68
2021/05/19 07:12:13;;;;;;;9.05;5.50;;;;;;;7.86;50.77;95466.28;5066125;28;20139;-69
2021/05/19 07:14:46;;;;;;;6.68;4.40;;;;;;;8.35;50.83;95471.75;5067398;28;20108;-68
2021/05/19 07:17:11;;;;;;;6.80;4.60;;;;;;;8.75;47.76;95466.53;5069484;28;20093;-68
2021/05/19 07:19:37;;;;;;;6.80;4.55;;;;;;;8.92;47.52;95473.47;5066889;28;20140;-68
2021/05/19 07:22:02;;;;;;;4.88;3.85;;;;;;;8.07;49.01;95488.00;5068785;28;20080;-68
2021/05/19 07:24:28;;;;;;;7.30;4.95;;;;;;;7.76;50.42;95479.66;5066016;28;20120;-68
2021/05/19 07:26:53;;;;;;;7.30;4.78;;;;;;;7.11;52.12;95483.81;5068634;28;20100;-68
2021/05/19 07:29:19;;;;;;;5.68;4.13;;;;;;;7.74;50.89;95478.16;5065794;28;20084;-68
2021/05/19 07:31:46;;;;;;;7.10;4.43;;;;;;;8.27;49.08;95478.72;5068691;28;20664;-68
2021/05/19 07:34:11;;;;;;;8.02;5.82;;;;;;;7.98;50.85;95485.34;5062069;28;20106;-68
2021/05/19 07:36:37;;;;;;;5.70;4.38;;;;;;;8.39;49.53;95483.66;5065605;28;20077;-68
2021/05/19 07:39:04;;;;;;;7.90;5.20;;;;;;;8.24;49.95;95479.06;5069848;28;20200;-68
2021/05/19 07:41:29;;;;;;;8.82;5.90;;;;;;;8.34;49.87;95475.41;5061100;28;20085;-68
2021/05/19 07:43:54;;;;;;;7.70;5.40;;;;;;;8.52;49.64;95476.03;5065007;28;20139;-68
2021/05/19 07:46:20;;;;;;;10.13;7.43;;;;;;;8.70;48.81;95475.00;5064830;28;20174;-68
2021/05/19 07:48:45;;;;;;;9.18;6.70;;;;;;;9.05;48.71;95475.59;5066952;28;20530;-68
2021/05/19 07:51:11;;;;;;;13.63;8.38;;;;;;;8.24;49.89;95478.22;5066823;28;20201;-68
2021/05/19 07:53:36;;;;;;;10.13;6.03;;;;;;;8.64;49.96;95483.66;5067868;28;20178;-68
2021/05/19 07:56:20;;;;;;;17.00;10.10;;;;;;;7.69;52.06;95488.44;5066192;28;20397;-68
2021/05/19 07:58:55;;;;;;;10.98;7.18;;;;;;;7.45;52.71;95490.03;5060165;28;20462;-68
2021/05/19 08:03:50;;;;;;;10.52;7.10;;;;;;;7.13;52.89;95490.59;5061196;28;20582;-68
2021/05/19 08:06:16;;;;;;;9.25;5.68;;;;;;;7.98;50.89;95481.84;5065606;28;20088;-68
2021/05/19 08:08:41;;;;;;;9.98;6.20;;;;;;;8.63;49.78;95481.97;5068060;28;20084;-68
2021/05/19 08:11:07;;;;;;;10.00;6.30;;;;;;;8.02;52.48;95488.47;5066787;28;20113;-68
2021/05/19 08:13:38;;;;;;;8.50;4.93;;;;;;;7.70;51.64;95488.28;5067895;28;20085;-68
2021/05/19 08:16:04;;;;;;;9.20;5.45;;;;;;;8.10;50.20;95480.56;5064091;28;20616;-68
2021/05/19 08:18:30;;;;;;;6.30;4.63;;;;;;;7.54;51.79;95487.25;5066763;28;20153;-68
2021/05/19 08:20:55;;;;;;;8.20;5.82;;;;;;;7.45;51.55;95484.75;5068154;28;20084;-68
2021/05/19 08:23:21;;;;;;;13.27;7.13;;;;;;;7.43;53.65;95481.41;5065658;28;20138;-68
2021/05/19 08:25:46;;;;;;;8.73;6.32;;;;;;;7.61;52.90;95478.63;5067562;28;20081;-68
2021/05/19 08:28:12;;;;;;;8.23;5.95;;;;;;;7.28;52.40;95482.84;5065301;28;20158;-68
2021/05/19 08:30:37;;;;;;;9.90;5.88;;;;;;;8.01;50.44;95478.88;5061850;28;20163;-68
2021/05/19 08:33:03;;;;;;;12.82;8.88;;;;;;;8.63;50.21;95469.53;5065180;28;20076;-68
2021/05/19 08:35:28;;;;;;;7.47;4.78;;;;;;;8.23;49.02;95485.34;5065235;28;20108;-68
2021/05/19 08:37:53;;;;;;;10.15;6.45;;;;;;;8.66;48.18;95479.00;5068109;28;20590;-68
2021/05/19 08:40:19;;;;;;;8.07;5.05;;;;;;;7.30;51.29;95495.09;5065455;28;20453;-68
2021/05/19 08:42:44;;;;;;;9.95;6.10;;;;;;;8.59;49.41;95491.28;5064234;28;20625;-68
2021/05/19 08:45:10;;;;;;;9.02;5.90;;;;;;;9.06;47.14;95484.41;5064574;28;20080;-68
2021/05/19 08:47:36;;;;;;;7.07;5.43;;;;;;;9.85;45.80;95485.31;5064206;28;20142;-68
2021/05/19 08:50:02;;;;;;;10.35;7.03;;;;;;;8.44;48.77;95487.47;5066868;28;20112;-68
2021/05/19 08:52:28;;;;;;;7.75;5.20;;;;;;;9.97;43.40;95489.22;5066061;28;20561;-68
2021/05/19 08:54:55;;;;;;;10.48;7.47;;;;;;;9.16;45.92;95497.47;5067306;28;20127;-68
2021/05/19 08:57:21;;;;;;;7.75;4.93;;;;;;;9.72;45.45;95485.88;5063158;28;20082;-66
2021/05/19 08:59:47;;;;;;;7.45;5.20;;;;;;;9.51;47.74;95490.00;5067308;28;20601;-66
2021/05/19 09:02:13;;;;;;;5.88;4.53;;;;;;;9.71;44.68;95481.59;5063480;28;20159;-67
2021/05/19 09:04:39;;;;;;;7.65;5.22;;;;;;;8.92;46.85;95486.75;5067305;28;20085;-67
2021/05/19 09:07:05;;;;;;;6.80;4.22;;;;;;;9.07;45.21;95489.53;5062216;28;20108;-68
2021/05/19 09:09:34;;;;;;;6.28;4.50;;;;;;;8.97;45.86;95483.59;5065116;28;20089;-67
2021/05/19 09:11:59;;;;;;;;;;;;;;;9.54;45.55;95479.03;5063888;28;20508;-67
2021/05/19 09:14:26;;;;;;;9.32;5.18;;;;;;;9.45;44.70;95486.22;5065025;28;19985;-67
2021/05/19 09:16:51;;;;;;;7.47;4.45;;;;;;;8.92;45.63;95480.59;5066417;28;20093;-68
2021/05/19 09:19:33;;;;;;;6.80;4.55;;;;;;;9.92;42.45;95480.09;5064414;28;20120;-69
2021/05/19 09:21:58;;;;;;;6.22;3.95;;;;;;;10.25;44.83;95479.06;5058847;28;20179;-68
2021/05/19 09:24:36;;;;;;;10.85;3.97;;;;;;;10.67;42.31;95483.00;5066844;28;20465;-68
2021/05/19 09:27:02;;;;;;;7.05;4.53;;;;;;;9.05;44.52;95485.41;5064150;28;20101;-68
2021/05/19 09:29:32;;;;;;;8.70;5.68;;;;;;;10.42;44.36;95477.94;5062121;28;20592;-69
2021/05/19 09:32:01;;;;;;;6.50;3.92;;;;;;;10.15;42.80;95480.16;5048666;28;20120;-69
2021/05/19 09:34:31;;;;;;;7.20;3.50;;;;;;;10.64;40.19;95478.03;5065180;28;20616;-69
2021/05/19 09:37:13;;;;;;;5.57;3.88;;;;;;;10.83;41.12;95473.19;5062174;28;20069;-69
2021/05/19 09:39:45;;;;;;;6.30;3.70;;;;;;;8.67;47.21;95478.81;5039086;28;20203;-69
2021/05/19 09:42:10;;;;;;;7.55;4.18;;;;;;;10.01;43.52;95480.88;5053383;28;20425;-69
2021/05/19 09:44:36;;;;;;;6.63;3.50;;;;;;;10.57;42.37;95483.25;5054707;28;20522;-69
2021/05/19 09:47:01;;;;;;;7.15;4.22;;;;;;;10.36;42.21;95475.97;5052137;28;20136;-69
2021/05/19 09:49:27;;;;;;;10.07;3.42;;;;;;;10.71;44.28;95481.63;5064245;28;20081;-69
2021/05/19 09:51:59;;;;;;;4.88;3.03;;;;;;;11.10;42.09;95473.59;5065210;28;20566;-69
2021/05/19 09:54:27;;;;;;;22.73;15.82;;;;;;;11.19;42.80;95479.66;5062145;28;20144;-69
2021/05/19 09:56:53;;;;;;;3.80;3.03;;;;;;;11.63;40.15;95473.41;5066205;28;20099;-69
2021/05/19 09:59:20;;;;;;;12.38;5.68;;;;;;;11.99;40.72;95468.22;5047847;28;20175;-68
2021/05/19 10:01:45;;;;;;;10.30;4.72;;;;;;;11.72;40.61;95459.94;5064049;28;20179;-68
2021/05/19 10:04:11;;;;;;;6.55;3.80;;;;;;;10.65;42.67;95457.56;5045462;28;20150;-68
2021/05/19 10:06:37;;;;;;;15.05;9.35;;;;;;;12.23;41.40;95453.69;5061672;28;20161;-68
2021/05/19 10:09:02;;;;;;;4.75;2.60;;;;;;;13.10;37.76;95462.50;5059984;28;20142;-68
2021/05/19 10:11:28;;;;;;;5.05;3.22;;;;;;;13.10;37.66;95458.00;5064847;28;20107;-68
2021/05/19 10:13:53;;;;;;;6.82;2.50;;;;;;;13.62;33.96;95460.25;5044822;28;20525;-68
2021/05/19 10:16:19;;;;;;;22.85;15.30;;;;;;;13.34;37.41;95450.50;5057574;28;20109;-68
2021/05/19 10:18:47;;;;;;;5.15;1.95;;;;;;;12.54;35.10;95447.16;5063739;28;20119;-68
2021/05/19 10:21:12;;;;;;;;;;;;;;;13.70;34.37;95446.69;5063744;28;20487;-68
2021/05/19 10:23:39;;;;;;;5.00;2.63;;;;;;;12.54;34.77;95447.16;5063459;28;20381;-68
2021/05/19 10:26:14;;;;;;;3.92;1.80;;;;;;;13.30;34.11;95447.38;5063019;28;20077;-68
2021/05/19 10:28:43;;;;;;;3.22;1.70;;;;;;;13.08;35.26;95443.19;5065070;28;20389;-68
2021/05/19 10:31:24;;;;;;;2.50;2.03;;;;;;;13.24;34.06;95442.00;5062870;28;20343;-68
2021/05/19 10:33:50;;;;;;;5.32;2.08;;;;;;;13.17;35.93;95444.66;5043359;28;20081;-69
2021/05/19 10:36:25;;;;;;;2.80;1.95;;;;;;;12.40;36.87;95445.41;5063249;28;20412;-68
2021/05/19 10:39:11;;;;;;;2.42;1.17;;;;;;;11.35;39.50;95451.94;5061680;28;20195;-69
2021/05/19 10:41:40;;;;;;;3.45;1.70;;;;;;;11.52;38.03;95444.56;5059876;28;20100;-68
2021/05/19 10:44:07;;;;;;;8.32;5.13;;;;;;;10.12;38.84;95445.91;5062353;28;20109;-68
2021/05/19 10:46:56;;;;;;;2.95;1.77;;;;;;;8.78;45.32;95471.50;5057422;28;20113;-68
2021/05/19 10:49:22;;;;;;;4.57;2.15;;;;;;;6.94;50.15;95478.41;5062588;28;20400;-68
2021/05/19 10:52:11;;;;;;;3.72;1.80;;;;;;;6.23;54.73;95489.06;5063537;28;20101;-67
2021/05/19 10:57:49;;;;;;;6.55;1.48;;;;;;;6.68;52.90;95474.00;5063233;28;20552;-68
2021/05/19 11:00:16;;;;;;;1.95;1.40;;;;;;;6.54;56.39;95471.94;5061744;28;20108;-68
2021/05/19 11:02:54;;;;;;;1.33;1.15;;;;;;;7.21;52.03;95478.38;5062272;28;20125;-68
2021/05/19 11:05:20;;;;;;;3.70;2.13;;;;;;;6.50;53.29;95471.44;5060090;28;20444;-68
2021/05/19 11:08:07;;;;;;;3.47;1.45;;;;;;;7.53;49.75;95466.22;5046212;28;20522;-67
2021/05/19 11:10:41;;;;;;;1.63;1.10;;;;;;;8.32;46.17;95454.34;5061870;28;20109;-68
2021/05/19 11:13:07;;;;;;;1.90;1.10;;;;;;;9.53;46.36;95445.50;5046358;28;20103;-68
2021/05/19 11:21:14;;;;;;;1.55;1.27;;;;;;;11.31;37.99;95432.03;5052081;28;20159;-68
2021/05/19 11:23:39;;;;;;;1.13;0.90;;;;;;;12.27;38.17;95435.44;5063900;28;20531;-68
2021/05/19 11:26:11;;;;;;;6.45;4.93;;;;;;;12.27;38.36;95430.09;5062134;28;20089;-68
2021/05/19 11:28:37;;;;;;;2.20;1.40;;;;;;;11.40;36.78;95436.25;5065677;28;20085;-68
2021/05/19 11:31:16;;;;;;;0.98;0.77;;;;;;;12.13;38.24;95434.50;5057995;28;20418;-68
2021/05/19 11:33:59;;;;;;;2.42;1.60;;;;;;;13.25;36.34;95438.31;5052873;28;20471;-68
2021/05/19 11:36:40;;;;;;;3.30;0.90;;;;;;;12.91;33.30;95430.09;5063954;28;20219;-68
2021/05/19 11:39:27;;;;;;;23.08;15.75;;;;;;;13.60;35.63;95424.84;5064810;28;20541;-67
2021/05/19 11:42:08;;;;;;;3.63;2.65;;;;;;;14.27;34.21;95418.78;5057600;28;20179;-67
2021/05/19 11:44:58;;;;;;;3.17;1.20;;;;;;;13.92;33.00;95414.47;5061987;28;20159;-68
2021/05/19 11:47:32;;;;;;;3.95;1.52;;;;;;;13.72;34.46;95413.56;5060617;28;20109;-68